Time;durP1;ratioP1;P1;durP2;ratioP2;P2;SDS_P1;SDS_P2;PMS_P1;PMS_P2;Temp;Humidity;BMP_temperature;BMP_pressure;BME280_temperature;BME280_humidity;BME280_pressure;Samples;Min_cycle;Max_cycle;Signal;HPM_P1;HPM_P2
2021/07/04 00:02:25;;;;;;;;;;;;;;;20.09;73.95;97646.66;5048563;28;19920;-66
2021/07/04 00:04:50;;;;;;;;;;;;;;;20.11;73.72;97645.56;5052078;28;19912;-65
2021/07/04 00:07:15;;;;;;;;;;;;;;;19.53;75.90;97651.28;5049040;28;19973;-65
2021/07/04 00:09:40;;;;;;;;;;;;;;;19.96;74.82;97652.16;5051881;28;19943;-66
2021/07/04 00:12:07;;;;;;;;;;;;;;;19.84;75.00;97652.22;5049600;28;20426;-66
2021/07/04 00:14:32;;;;;;;;;;;;;;;19.82;75.12;97646.22;5050886;28;20393;-66
2021/07/04 00:16:58;;;;;;;;;;;;;;;19.78;74.73;97650.09;5052017;28;19923;-65
2021/07/04 00:19:23;;;;;;;;;;;;;;;19.71;75.11;97654.19;5050496;28;19912;-65
2021/07/04 00:21:49;;;;;;;;;;;;;;;19.50;76.16;97645.41;5047655;28;19920;-66
2021/07/04 00:24:14;;;;;;;;;;;;;;;19.50;76.04;97648.91;5050674;28;19912;-66
2021/07/04 00:26:39;;;;;;;;;;;;;;;19.20;76.63;97644.34;5054304;28;19912;-66
2021/07/04 00:29:05;;;;;;;;;;;;;;;19.23;77.35;97641.44;5051370;28;19956;-66
2021/07/04 00:31:30;;;;;;;;;;;;;;;19.14;77.65;97650.97;5054210;28;19917;-66
2021/07/04 00:33:55;;;;;;;;;;;;;;;19.01;77.55;97651.13;5054011;28;19917;-66
2021/07/04 00:36:21;;;;;;;;;;;;;;;19.49;75.55;97651.69;5052725;28;19923;-65
2021/07/04 00:38:46;;;;;;;;;;;;;;;19.22;75.89;97652.97;5052910;28;19912;-66
2021/07/04 00:41:11;;;;;;;;;;;;;;;19.21;75.27;97651.31;5050989;28;19920;-65
2021/07/04 00:43:36;;;;;;;;;;;;;;;19.47;74.45;97643.03;5054705;28;19913;-66
2021/07/04 00:46:02;;;;;;;;;;;;;;;19.34;75.34;97646.69;5052326;28;20143;-66
2021/07/04 00:48:27;;;;;;;;;;;;;;;19.29;75.85;97646.22;5053129;28;19916;-65
2021/07/04 00:50:53;;;;;;;;;;;;;;;19.17;76.32;97648.06;5052446;28;19921;-66
2021/07/04 00:53:18;;;;;;;;;;;;;;;19.41;75.15;97641.75;5054159;28;20035;-66
2021/07/04 00:55:44;;;;;;;;;;;;;;;19.57;74.41;97652.69;5054041;28;19996;-66
2021/07/04 00:58:09;;;;;;;;;;;;;;;19.06;78.53;97643.66;5054586;28;19916;-66
2021/07/04 01:00:38;;;;;;;;;;;;;;;18.94;78.97;97655.22;5052683;28;19992;-65
2021/07/04 01:03:04;;;;;;;;;;;;;;;19.24;77.35;97645.75;5047831;28;19974;-66
2021/07/04 01:05:30;;;;;;;;;;;;;;;19.48;76.13;97655.28;5053102;28;19921;-66
2021/07/04 01:07:56;;;;;;;;;;;;;;;19.26;78.19;97649.97;5053470;28;19993;-65
2021/07/04 01:10:22;;;;;;;;;;;;;;;19.15;78.51;97654.44;5054481;28;19916;-65
2021/07/04 01:12:49;;;;;;;;;;;;;;;19.15;78.18;97647.38;5051835;28;19909;-66
2021/07/04 01:15:17;;;;;;;;;;;;;;;19.49;76.78;97652.50;5054110;28;19962;-66
2021/07/04 01:17:42;;;;;;;;;;;;;;;19.39;77.07;97646.28;5053545;28;20321;-65
2021/07/04 01:20:09;;;;;;;;;;;;;;;19.72;75.74;97653.25;5049789;28;19912;-65
2021/07/04 01:22:36;;;;;;;;;;;;;;;19.60;76.17;97656.91;5052045;28;19910;-66
2021/07/04 01:25:01;;;;;;;;;;;;;;;19.29;77.07;97651.50;5052728;28;19913;-66
2021/07/04 01:27:27;;;;;;;;;;;;;;;19.22;77.71;97648.53;5050458;28;19971;-66
2021/07/04 01:29:52;;;;;;;;;;;;;;;19.78;75.38;97649.28;5054071;28;19913;-66
2021/07/04 01:32:17;;;;;;;;;;;;;;;19.82;75.07;97643.59;5050299;28;20378;-65
2021/07/04 01:34:43;;;;;;;;;;;;;;;19.91;74.66;97649.91;5053282;28;19918;-65
2021/07/04 01:37:08;;;;;;;;;;;;;;;19.41;76.51;97642.56;5052072;28;19923;-66
2021/07/04 01:39:33;;;;;;;;;;;;;;;19.43;75.97;97643.28;5050912;28;19912;-66
2021/07/04 01:41:58;;;;;;;;;;;;;;;19.11;77.49;97639.78;5052152;28;19916;-66
2021/07/04 01:44:24;;;;;;;;;;;;;;;19.05;77.52;97641.97;5054569;28;20357;-65
2021/07/04 01:46:49;;;;;;;;;;;;;;;19.10;78.08;97638.09;5051881;28;19920;-66
2021/07/04 01:49:14;;;;;;;;;;;;;;;18.98;78.90;97640.78;5053678;28;19943;-66
2021/07/04 01:51:40;;;;;;;;;;;;;;;18.85;79.46;97640.94;5049338;28;20365;-66
2021/07/04 01:54:05;;;;;;;;;;;;;;;19.39;77.62;97635.72;5047754;28;19912;-66
2021/07/04 01:56:30;;;;;;;;;;;;;;;19.43;77.14;97647.75;5051359;28;19917;-65
2021/07/04 01:58:55;;;;;;;;;;;;;;;19.00;78.70;97644.13;5051808;28;19924;-65
2021/07/04 02:01:21;;;;;;;;;;;;;;;18.86;79.66;97644.44;5051336;28;19923;-65
2021/07/04 02:03:46;;;;;;;;;;;;;;;19.38;77.47;97637.53;5052945;28;19916;-65
2021/07/04 02:06:11;;;;;;;;;;;;;;;19.05;79.16;97631.41;5051193;28;20324;-65
2021/07/04 02:08:37;;;;;;;;;;;;;;;19.02;79.85;97642.25;5051795;28;20377;-65
2021/07/04 02:11:02;;;;;;;;;;;;;;;19.16;78.93;97633.16;5051997;28;20340;-65
2021/07/04 02:13:27;;;;;;;;;;;;;;;19.00;79.91;97633.56;5051107;28;19930;-65
2021/07/04 02:15:52;;;;;;;;;;;;;;;18.96;79.90;97640.06;5052386;28;19920;-65
2021/07/04 02:18:18;;;;;;;;;;;;;;;18.95;79.36;97638.41;5049799;28;19912;-65
2021/07/04 02:20:47;;;;;;;;;;;;;;;18.94;79.93;97642.00;5049879;28;20489;-65
2021/07/04 02:23:14;;;;;;;;;;;;;;;19.43;77.85;97632.69;5051541;28;19969;-65
2021/07/04 02:25:40;;;;;;;;;;;;;;;19.55;77.24;97630.00;5052153;28;20007;-65
2021/07/04 02:28:06;;;;;;;;;;;;;;;19.51;77.20;97625.94;5053130;28;20829;-65
2021/07/04 02:30:34;;;;;;;;;;;;;;;19.41;77.77;97631.16;5051644;28;19917;-65
2021/07/04 02:33:03;;;;;;;;;;;;;;;19.54;77.15;97630.97;5050268;28;20003;-65
2021/07/04 02:35:29;;;;;;;;;;;;;;;19.22;78.64;97631.81;5051442;28;20282;-65
2021/07/04 02:37:54;;;;;;;;;;;;;;;19.29;78.31;97627.72;5052378;28;19919;-65
2021/07/04 02:40:20;;;;;;;;;;;;;;;19.14;79.48;97623.69;5050974;28;19916;-65
2021/07/04 02:42:45;;;;;;;;;;;;;;;19.20;78.58;97618.72;5054575;28;20328;-65
2021/07/04 02:45:11;;;;;;;;;;;;;;;19.43;77.48;97622.13;5049183;28;19916;-65
2021/07/04 02:47:36;;;;;;;;;;;;;;;19.23;78.50;97618.47;5052422;28;20478;-65
2021/07/04 02:50:02;;;;;;;;;;;;;;;19.09;79.45;97621.41;5052866;28;19916;-65
2021/07/04 02:52:27;;;;;;;;;;;;;;;19.01;80.16;97621.22;5052973;28;19959;-65
2021/07/04 02:54:52;;;;;;;;;;;;;;;19.13;79.50;97622.84;5051377;28;19992;-65
2021/07/04 02:57:17;;;;;;;;;;;;;;;19.01;79.95;97614.13;5049836;28;19955;-65
2021/07/04 02:59:43;;;;;;;;;;;;;;;19.23;79.03;97617.66;5051840;28;20036;-65
2021/07/04 03:02:08;;;;;;;;;;;;;;;18.96;79.66;97626.03;5050477;28;19948;-65
2021/07/04 03:04:33;;;;;;;;;;;;;;;19.14;79.21;97623.69;5053814;28;19913;-65
2021/07/04 03:07:00;;;;;;;;;;;;;;;19.02;79.80;97626.38;5051153;28;19917;-65
2021/07/04 03:09:26;;;;;;;;;;;;;;;19.40;77.95;97632.94;5050232;28;19927;-65
2021/07/04 03:11:51;;;;;;;;;;;;;;;19.23;78.75;97638.81;5050803;28;20017;-65
2021/07/04 03:14:16;;;;;;;;;;;;;;;18.97;79.64;97630.38;5049792;28;19921;-65
2021/07/04 03:16:42;;;;;;;;;;;;;;;18.99;80.42;97631.91;5050330;28;19967;-65
2021/07/04 03:19:07;;;;;;;;;;;;;;;18.86;80.81;97631.22;5051658;28;19962;-65
2021/07/04 03:21:32;;;;;;;;;;;;;;;18.96;80.06;97640.06;5050047;28;19916;-65
2021/07/04 03:23:58;;;;;;;;;;;;;;;18.81;80.84;97643.97;5053739;28;19912;-65
2021/07/04 03:26:23;;;;;;;;;;;;;;;18.83;80.12;97648.16;5050416;28;19924;-65
2021/07/04 03:28:48;;;;;;;;;;;;;;;18.59;80.75;97645.66;5053320;28;19916;-65
2021/07/04 03:31:13;;;;;;;;;;;;;;;18.60;80.55;97649.97;5050913;28;20012;-65
2021/07/04 03:33:39;;;;;;;;;;;;;;;18.79;80.90;97645.88;5054061;28;19917;-65
2021/07/04 03:36:04;;;;;;;;;;;;;;;18.68;80.83;97644.91;5055874;28;20251;-65
2021/07/04 03:38:30;;;;;;;;;;;;;;;18.66;81.32;97646.00;5055183;28;19951;-65
2021/07/04 03:40:55;;;;;;;;;;;;;;;18.94;79.78;97642.00;5054628;28;19913;-65
2021/07/04 03:43:20;;;;;;;;;;;;;;;18.94;79.78;97639.38;5054573;28;19974;-65
2021/07/04 03:45:45;;;;;;;;;;;;;;;19.10;78.59;97632.81;5053804;28;19930;-65
2021/07/04 03:48:11;;;;;;;;;;;;;;;18.95;79.46;97638.41;5054284;28;19969;-67
2021/07/04 03:50:36;;;;;;;;;;;;;;;18.78;81.03;97642.38;5054325;28;19935;-65
2021/07/04 03:53:02;;;;;;;;;;;;;;;19.01;80.11;97637.91;5052787;28;19913;-65
2021/07/04 03:55:28;;;;;;;;;;;;;;;19.20;79.25;97637.22;5051209;28;19917;-66
2021/07/04 03:57:53;;;;;;;;;;;;;;;18.93;79.83;97647.41;5054584;28;20449;-66
2021/07/04 04:00:19;;;;;;;;;;;;;;;18.90;81.07;97645.03;5054472;28;20274;-65
2021/07/04 04:02:44;;;;;;;;;;;;;;;19.20;79.95;97641.69;5052687;28;19940;-65
2021/07/04 04:05:10;;;;;;;;;;;;;;;19.32;78.82;97635.41;5053274;28;19913;-65
2021/07/04 04:07:35;;;;;;;;;;;;;;;18.87;80.36;97633.72;5052156;28;19917;-65
2021/07/04 04:10:03;;;;;;;;;;;;;;;19.13;79.11;97633.41;5055331;28;19919;-65
2021/07/04 04:12:28;;;;;;;;;;;;;;;19.31;78.76;97644.28;5055072;28;19916;-65
2021/07/04 04:14:53;;;;;;;;;;;;;;;19.09;80.41;97639.09;5053414;28;19917;-65
2021/07/04 04:17:18;;;;;;;;;;;;;;;18.96;80.79;97632.16;5054319;28;20206;-65
2021/07/04 04:19:44;;;;;;;;;;;;;;;18.95;81.00;97634.91;5052009;28;20062;-65
2021/07/04 04:22:10;;;;;;;;;;;;;;;18.75;81.29;97641.75;5054047;28;20285;-65
2021/07/04 04:24:35;;;;;;;;;;;;;;;18.89;81.06;97638.88;5053109;28;20001;-65
2021/07/04 04:27:00;;;;;;;;;;;;;;;18.83;80.96;97647.31;5052675;28;19981;-65
2021/07/04 04:29:25;;;;;;;;;;;;;;;18.72;81.70;97644.66;5053836;28;19951;-65
2021/07/04 04:31:51;;;;;;;;;;;;;;;18.97;80.31;97644.41;5052029;28;20305;-65
2021/07/04 04:34:16;;;;;;;;;;;;;;;19.22;79.63;97639.75;5053263;28;20006;-65
2021/07/04 04:36:42;;;;;;;;;;;;;;;19.39;78.54;97633.06;5051166;28;20282;-65
2021/07/04 04:39:07;;;;;;;;;;;;;;;19.36;78.34;97641.28;5052010;28;20010;-65
2021/07/04 04:41:34;;;;;;;;;;;;;;;19.29;80.19;97640.09;5052196;28;19992;-66
2021/07/04 04:43:59;;;;;;;;;;;;;;;19.39;78.96;97635.72;5055122;28;20016;-65
2021/07/04 04:46:25;;;;;;;;;;;;;;;19.48;78.68;97634.13;5053575;28;20412;-65
2021/07/04 04:48:50;;;;;;;;;;;;;;;19.55;78.78;97632.63;5055076;28;19923;-66
2021/07/04 04:51:15;;;;;;;;;;;;;;;19.45;78.79;97628.13;5053824;28;19916;-66
2021/07/04 04:53:40;;;;;;;;;;;;;;;19.33;79.15;97628.31;5054390;28;19915;-66
2021/07/04 04:56:05;;;;;;;;;;;;;;;19.53;78.26;97629.28;5054236;28;19924;-65
2021/07/04 04:58:31;;;;;;;;;;;;;;;19.67;77.84;97634.25;5052468;28;19913;-66
2021/07/04 05:00:56;;;;;;;;;;;;;;;19.80;77.63;97642.88;5053860;28;19932;-65
2021/07/04 05:03:21;;;;;;;;;;;;;;;19.78;77.22;97639.53;5053545;28;19924;-66
2021/07/04 05:05:46;;;;;;;;;;;;;;;19.71;77.71;97640.97;5050075;28;19952;-66
2021/07/04 05:08:12;;;;;;;;;;;;;;;19.69;77.59;97637.63;5054816;28;20015;-65
2021/07/04 05:10:37;;;;;;;;;;;;;;;19.98;76.37;97639.66;5052738;28;19916;-65
2021/07/04 05:13:02;;;;;;;;;;;;;;;20.46;74.40;97643.47;5052041;28;19912;-66
2021/07/04 05:15:27;;;;;;;;;;;;;;;20.65;73.39;97632.16;5050799;28;19924;-66
2021/07/04 05:17:52;;;;;;;;;;;;;;;20.26;75.40;97631.97;5053881;28;19923;-66
2021/07/04 05:20:18;;;;;;;;;;;;;;;20.30;75.14;97628.91;5052149;28;19997;-67
2021/07/04 05:22:43;;;;;;;;;;;;;;;20.65;73.43;97629.50;5053388;28;19912;-66
2021/07/04 05:25:09;;;;;;;;;;;;;;;20.20;75.66;97623.59;5052022;28;19969;-65
2021/07/04 05:27:34;;;;;;;;;;;;;;;20.51;74.51;97625.38;5053442;28;19919;-66
2021/07/04 05:29:59;;;;;;;;;;;;;;;20.11;76.20;97621.75;5054676;28;20314;-66
2021/07/04 05:32:27;;;;;;;;;;;;;;;20.15;76.86;97624.97;5052742;28;20001;-66
2021/07/04 05:34:52;;;;;;;;;;;;;;;20.41;75.06;97617.41;5054326;28;19965;-66
2021/07/04 05:37:18;;;;;;;;;;;;;;;20.04;76.50;97625.88;5054497;28;19963;-66
2021/07/04 05:39:43;;;;;;;;;;;;;;;19.62;78.82;97628.53;5052585;28;19912;-66
2021/07/04 05:42:08;;;;;;;;;;;;;;;19.50;79.24;97626.88;5051773;28;20035;-66
2021/07/04 05:44:34;;;;;;;;;;;;;;;19.68;78.88;97619.22;5052325;28;19915;-65
2021/07/04 05:46:59;;;;;;;;;;;;;;;19.73;78.97;97625.84;5050562;28;20336;-66
2021/07/04 05:49:24;;;;;;;;;;;;;;;19.80;78.63;97621.69;5052975;28;19917;-66
2021/07/04 05:51:50;;;;;;;;;;;;;;;19.76;78.32;97625.59;5052462;28;19999;-67
2021/07/04 05:54:15;;;;;;;;;;;;;;;19.86;78.05;97619.50;5050724;28;19924;-68
2021/07/04 05:56:41;;;;;;;;;;;;;;;20.05;76.95;97624.06;5050958;28;19917;-66
2021/07/04 05:59:06;;;;;;;;;;;;;;;19.87;77.59;97618.53;5034618;28;19939;-65
2021/07/04 06:01:32;;;;;;;;;;;;;;;20.17;76.62;97615.06;5044877;28;19923;-66
2021/07/04 06:03:57;;;;;;;;;;;;;;;20.16;76.33;97608.94;5050630;28;20014;-65
2021/07/04 06:06:22;;;;;;;;;;;;;;;20.16;76.36;97606.31;5050776;28;19912;-65
2021/07/04 06:08:47;;;;;;;;;;;;;;;20.01;77.05;97612.91;5051589;28;19923;-66
2021/07/04 06:13:39;;;;;;;;;;;;;;;20.17;76.55;97604.47;5081443;27;20735;-65
2021/07/04 06:16:05;;;;;;;;;;;;;;;20.35;76.53;97615.28;5077398;27;20377;-65
2021/07/04 06:18:30;;;;;;;;;;;;;;;20.29;76.93;97611.38;5060136;28;19927;-65
2021/07/04 06:20:55;;;;;;;;;;;;;;;20.31;76.25;97609.44;5059160;28;19928;-64
2021/07/04 06:23:23;;;;;;;;;;;;;;;20.26;76.83;97613.44;5059804;28;20011;-65
2021/07/04 06:25:48;;;;;;;;;;;;;;;20.40;75.64;97611.25;5059083;28;19959;-65
2021/07/04 06:28:13;;;;;;;;;;;;;;;20.57;74.75;97606.31;5059543;28;20014;-65
2021/07/04 06:30:39;;;;;;;;;;;;;;;20.22;76.06;97605.75;5055159;28;19931;-65
2021/07/04 06:33:05;;;;;;;;;;;;;;;20.70;74.57;97608.72;5056329;28;19932;-65
2021/07/04 06:35:30;;;;;;;;;;;;;;;20.63;75.22;97608.44;5055001;28;19925;-65
2021/07/04 06:37:55;;;;;;;;;;;;;;;20.83;74.02;97604.00;5060137;28;19913;-65
2021/07/04 06:40:20;;;;;;;;;;;;;;;20.56;74.84;97605.44;5058744;28;20695;-65
2021/07/04 06:42:46;;;;;;;;;;;;;;;21.06;72.47;97611.69;5060165;28;19946;-65
2021/07/04 06:45:11;;;;;;;;;;;;;;;21.02;72.65;97602.34;5059186;28;19912;-65
2021/07/04 06:47:37;;;;;;;;;;;;;;;20.95;72.66;97610.88;5059661;28;20377;-65
2021/07/04 06:50:03;;;;;;;;;;;;;;;21.22;71.79;97605.84;5058860;28;19916;-64
2021/07/04 06:52:28;;;;;;;;;;;;;;;20.84;73.69;97603.03;5059249;28;19921;-65
2021/07/04 06:54:54;;;;;;;;;;;;;;;21.10;72.88;97606.00;5060025;28;20372;-65
2021/07/04 06:57:29;;;;;;;;;;;;;;;21.09;72.30;97604.31;5059126;28;19955;-65
2021/07/04 06:59:58;;;;;;;;;;;;;;;21.27;72.11;97601.81;5059118;28;20001;-65
2021/07/04 07:02:24;;;;;;;;;;;;;;;21.17;73.01;97603.59;5058253;28;19921;-65
2021/07/04 07:04:50;;;;;;;;;;;;;;;20.85;73.90;97607.34;5059009;28;20428;-65
2021/07/04 07:07:15;;;;;;;;;;;;;;;21.11;73.14;97597.03;5058868;28;19943;-65
2021/07/04 07:09:40;;;;;;;;;;;;;;;20.43;76.28;97602.19;5059303;28;19920;-65
2021/07/04 07:12:06;;;;;;;;;;;;;;;20.75;74.98;97599.41;5058393;28;20364;-65
2021/07/04 07:14:31;;;;;;;;;;;;;;;20.88;74.53;97599.13;5059023;28;20027;-65
2021/07/04 07:16:57;;;;;;;;;;;;;;;20.64;75.04;97596.88;5058621;28;20047;-65
2021/07/04 07:19:22;;;;;;;;;;;;;;;20.92;74.37;97592.59;5058735;28;19917;-65
2021/07/04 07:21:47;;;;;;;;;;;;;;;20.35;76.54;97596.75;5058010;28;19921;-65
2021/07/04 07:24:12;;;;;;;;;;;;;;;20.35;77.00;97594.94;5050511;28;20616;-65
2021/07/04 07:26:37;;;;;;;;;;;;;;;20.89;74.78;97592.84;5045334;28;20349;-65
2021/07/04 07:29:03;;;;;;;;;;;;;;;20.45;77.80;97589.66;5045528;28;20770;-66
2021/07/04 07:31:30;;;;;;;;;;;;;;;21.22;73.33;97588.13;5059503;28;19967;-66
2021/07/04 07:33:56;;;;;;;;;;;;;;;21.13;74.50;97588.97;5045925;28;19958;-66
2021/07/04 07:36:21;;;;;;;;;;;;;;;20.95;75.24;97575.53;5045057;28;20668;-65
2021/07/04 07:38:46;;;;;;;;;;;;;;;21.46;73.44;97579.75;5045468;28;19924;-66
2021/07/04 07:41:11;;;;;;;;;;;;;;;21.66;72.58;97572.59;5044681;28;19921;-66
2021/07/04 07:43:37;;;;;;;;;;;;;;;21.55;72.15;97572.75;5045652;28;19916;-65
2021/07/04 07:46:02;;;;;;;;;;;;;;;22.12;68.89;97572.75;5044783;28;19966;-65
2021/07/04 07:48:27;;;;;;;;;;;;;;;22.47;67.90;97569.38;5045232;28;19943;-65
2021/07/04 07:50:52;;;;;;;;;;;;;;;21.61;72.72;97572.19;5044713;28;20340;-66
2021/07/04 07:53:18;;;;;;;;;;;;;;;22.26;69.32;97566.97;5045123;28;19958;-66
2021/07/04 07:55:43;;;;;;;;;;;;;;;21.94;70.60;97557.56;5044889;28;19921;-67
2021/07/04 07:58:08;;;;;;;;;;;;;;;21.87;71.27;97561.81;5045049;28;19909;-65
2021/07/04 08:00:34;;;;;;;;;;;;;;;22.04;70.77;97568.16;5044000;28;19921;-65
2021/07/04 08:02:59;;;;;;;;;;;;;;;22.70;67.59;97559.19;5044996;28;20460;-65
2021/07/04 08:05:24;;;;;;;;;;;;;;;21.82;71.07;97555.25;5044830;28;19913;-65
2021/07/04 08:07:50;;;;;;;;;;;;;;;21.81;70.31;97549.09;5045175;28;19921;-65
2021/07/04 08:10:15;;;;;;;;;;;;;;;22.79;67.26;97548.63;5044384;28;20027;-64
2021/07/04 08:12:42;;;;;;;;;;;;;;;22.94;66.45;97548.91;5044712;28;20853;-65
2021/07/04 08:15:07;;;;;;;;;;;;;;;23.23;64.86;97551.38;5044612;28;20712;-64
2021/07/04 08:17:32;;;;;;;;;;;;;;;23.01;65.44;97544.66;5044308;28;19913;-65
2021/07/04 08:19:57;;;;;;;;;;;;;;;23.33;64.30;97543.31;5044725;28;19948;-65
2021/07/04 08:22:23;;;;;;;;;;;;;;;23.33;64.89;97544.16;5043968;28;20614;-65
2021/07/04 08:24:48;;;;;;;;;;;;;;;23.68;63.12;97543.22;5044625;28;19916;-65
2021/07/04 08:27:13;;;;;;;;;;;;;;;23.68;64.55;97537.06;5043697;28;19920;-65
2021/07/04 08:29:39;;;;;;;;;;;;;;;23.42;63.92;97535.22;5044447;28;19923;-65
2021/07/04 08:32:04;;;;;;;;;;;;;;;23.75;62.48;97534.63;5042623;28;19925;-65
2021/07/04 08:34:30;;;;;;;;;;;;;;;23.37;63.79;97534.03;5044029;28;19916;-65
2021/07/04 08:36:55;;;;;;;;;;;;;;;23.56;63.37;97535.66;5042686;28;19921;-64
2021/07/04 08:39:20;;;;;;;;;;;;;;;23.22;63.99;97529.25;5044104;28;19994;-65
2021/07/04 08:41:45;;;;;;;;;;;;;;;23.74;62.38;97525.78;5043286;28;20398;-65
2021/07/04 08:44:11;;;;;;;;;;;;;;;24.07;61.23;97525.16;5044072;28;20825;-65
2021/07/04 08:46:43;;;;;;;;;;;;;;;24.02;61.40;97522.97;5043431;28;20408;-65
2021/07/04 08:49:09;;;;;;;;;;;;;;;23.57;62.76;97519.53;5042240;28;20295;-65
2021/07/04 08:51:34;;;;;;;;;;;;;;;24.02;61.18;97517.63;5043191;28;20557;-65
2021/07/04 08:53:59;;;;;;;;;;;;;;;23.98;62.15;97525.09;5043951;28;19916;-65
2021/07/04 08:56:25;;;;;;;;;;;;;;;24.05;60.88;97518.16;5043611;28;19921;-65
2021/07/04 08:58:50;;;;;;;;;;;;;;;23.65;61.86;97519.59;5043913;28;19969;-65
2021/07/04 09:01:24;;;;;;;;;;;;;;;23.95;60.74;97528.09;5042989;28;19921;-65
2021/07/04 09:03:50;;;;;;;;;;;;;;;24.07;61.00;97533.97;5043650;28;19917;-64
2021/07/04 09:06:34;;;;;;;;;;;;;;;23.91;60.48;97521.41;5034212;28;19928;-63
2021/07/04 09:09:13;;;;;;;;;;;;;;;24.31;60.21;97519.91;5040943;28;19917;-64
2021/07/04 09:11:49;;;;;;;;;;;;;;;24.75;58.83;97514.38;5041670;28;20337;-65
2021/07/04 09:14:14;;;;;;;;;;;;;;;24.46;59.42;97513.97;5043420;28;19917;-65
2021/07/04 09:16:46;;;;;;;;;;;;;;;24.04;61.38;97513.81;5041484;28;20310;-64
2021/07/04 09:19:12;;;;;;;;;;;;;;;24.33;59.35;97514.41;5043197;28;20644;-65
2021/07/04 09:21:37;;;;;;;;;;;;;;;24.61;57.91;97513.22;5041210;28;20025;-64
2021/07/04 09:24:21;;;;;;;;;;;;;;;24.11;60.66;97506.00;5038563;28;19944;-64
2021/07/04 09:26:46;;;;;;;;;;;;;;;24.71;59.59;97499.72;5039144;28;19952;-65
2021/07/04 09:29:11;;;;;;;;;;;;;;;24.35;59.79;97502.59;5042939;28;19995;-65
2021/07/04 09:31:37;;;;;;;;;;;;;;;24.68;59.44;97501.88;5042141;28;19956;-64
2021/07/04 09:34:09;;;;;;;;;;;;;;;25.11;57.05;97500.75;5043022;28;19959;-64
2021/07/04 09:36:35;;;;;;;;;;;;;;;24.29;59.44;97508.56;5042251;28;19917;-64
2021/07/04 09:39:13;;;;;;;;;;;;;;;24.44;58.86;97500.78;5042488;28;19971;-64
2021/07/04 09:41:38;;;;;;;;;;;;;;;24.35;58.69;97502.59;5041751;28;19921;-64
2021/07/04 09:44:21;;;;;;;;;;;;;;;24.74;57.83;97502.06;5042142;28;19923;-65
2021/07/04 09:47:06;;;;;;;;;;;;;;;25.11;57.06;97498.06;5042031;28;19920;-65
2021/07/04 09:49:32;;;;;;;;;;;;;;;24.60;57.32;97492.03;5042493;28;20489;-64
2021/07/04 09:52:16;;;;;;;;;;;;;;;24.40;58.08;97497.63;5041905;28;19928;-65
2021/07/04 09:54:54;;;;;;;;;;;;;;;23.63;57.35;97489.59;5041807;28;19917;-65
2021/07/04 09:57:20;;;;;;;;;;;;;;;24.56;57.89;97477.38;5035394;28;19925;-65
2021/07/04 09:59:45;;;;;;;;;;;;;;;25.02;56.72;97483.06;5039984;28;19924;-65
2021/07/04 10:02:14;;;;;;;;;;;;;;;25.33;55.24;97475.25;5041394;28;19920;-65
2021/07/04 10:04:39;;;;;;;;;;;;;;;24.89;56.63;97482.75;5042750;28;19912;-65
2021/07/04 10:07:05;;;;;;;;;;;;;;;24.73;57.12;97472.88;5041092;28;19928;-65
2021/07/04 10:09:30;;;;;;;;;;;;;;;24.88;59.02;97476.56;5042234;28;19917;-65
2021/07/04 10:11:56;;;;;;;;;;;;;;;24.43;57.56;97465.31;5040806;28;20301;-65
2021/07/04 10:14:21;;;;;;;;;;;;;;;24.72;60.15;97465.88;5041074;28;20640;-64
2021/07/04 10:16:47;;;;;;;;;;;;;;;25.42;56.23;97457.38;5042100;28;19921;-64
2021/07/04 10:19:25;;;;;;;;;;;;;;;25.78;55.48;97452.41;5042119;28;19939;-64
2021/07/04 10:21:56;;;;;;;;;;;;;;;25.66;55.36;97450.28;5041972;28;20440;-65
2021/07/04 10:24:22;;;;;;;;;;;;;;;26.10;54.02;97445.31;5042460;28;19924;-65
2021/07/04 10:26:47;;;;;;;;;;;;;;;25.12;55.32;97449.03;5042069;28;20119;-65
2021/07/04 10:29:13;;;;;;;;;;;;;;;24.61;56.35;97437.69;5042050;28;19916;-65
2021/07/04 10:31:38;;;;;;;;;;;;;;;25.04;56.86;97438.38;5041717;28;20279;-65
2021/07/04 10:34:03;;;;;;;;;;;;;;;25.49;55.68;97431.63;5041913;28;19916;-65
2021/07/04 10:36:29;;;;;;;;;;;;;;;25.54;55.06;97434.63;5041978;28;19974;-65
2021/07/04 10:38:55;;;;;;;;;;;;;;;25.42;55.65;97438.69;5033354;28;19928;-65
2021/07/04 10:41:24;;;;;;;;;;;;;;;26.00;54.48;97433.16;5035070;28;19928;-66
2021/07/04 10:44:00;;;;;;;;;;;;;;;25.16;56.04;97426.38;5038351;28;19924;-65
2021/07/04 10:46:41;;;;;;;;;;;;;;;25.73;55.27;97416.53;5038483;28;19932;-65
2021/07/04 10:49:09;;;;;;;;;;;;;;;25.92;54.71;97421.50;5039121;28;19916;-65
2021/07/04 10:51:52;;;;;;;;;;;;;;;25.96;54.60;97419.31;5037899;28;19928;-65
2021/07/04 10:54:37;;;;;;;;;;;;;;;25.94;54.46;97410.66;5033926;28;19989;-66
2021/07/04 10:57:09;;;;;;;;;;;;;;;25.47;55.62;97408.81;5036197;28;19940;-64
2021/07/04 10:59:53;;;;;;;;;;;;;;;25.83;54.77;97411.84;5040145;28;19916;-64
2021/07/04 11:02:37;;;;;;;;;;;;;;;25.33;56.16;97410.34;5041037;28;20035;-65
2021/07/04 11:05:04;;;;;;;;;;;;;;;25.81;54.90;97410.34;5042250;28;19921;-65
2021/07/04 11:07:48;;;;;;;;;;;;;;;25.80;54.54;97404.16;5041994;28;20018;-67
2021/07/04 11:10:19;;;;;;;;;;;;;;;25.74;54.60;97402.19;5041081;28;19916;-66
2021/07/04 11:12:45;;;;;;;;;;;;;;;25.74;54.41;97407.53;5041885;28;19932;-65
2021/07/04 11:15:13;;;;;;;;;;;;;;;25.73;57.24;97400.53;5041805;28;19917;-64
2021/07/04 11:17:57;;;;;;;;;;;;;;;25.95;58.38;97410.47;5041731;28;19923;-65
2021/07/04 11:20:23;;;;;;;;;;;;;;;25.69;57.44;97399.22;5041748;28;19925;-65
2021/07/04 11:23:07;;;;;;;;;;;;;;;25.63;57.68;97395.38;5042282;28;20358;-64
2021/07/04 11:25:46;;;;;;;;;;;;;;;25.58;56.87;97397.75;5041671;28;19944;-64
2021/07/04 11:28:14;;;;;;;;;;;;;;;25.82;57.99;97383.44;5041961;28;19912;-65
2021/07/04 11:30:39;;;;;;;;;;;;;;;25.85;58.58;97383.09;5041481;28;19964;-64
2021/07/04 11:33:21;;;;;;;;;;;;;;;25.92;57.50;97377.91;5041835;28;20019;-64
2021/07/04 11:35:46;;;;;;;;;;;;;;;25.34;57.79;97372.78;5041544;28;19921;-64
2021/07/04 11:38:15;;;;;;;;;;;;;;;25.65;57.83;97364.00;5041343;28;19928;-64
2021/07/04 11:40:41;;;;;;;;;;;;;;;25.39;58.28;97357.09;5041640;28;20344;-65
2021/07/04 11:43:14;;;;;;;;;;;;;;;25.50;58.12;97355.06;5041845;28;19917;-65
2021/07/04 11:45:47;;;;;;;;;;;;;;;25.34;57.94;97351.44;5041685;28;20027;-65
2021/07/04 11:48:14;;;;;;;;;;;;;;;25.10;58.50;97360.31;5041820;28;20120;-65
2021/07/04 11:50:53;;;;;;;;;;;;;;;24.32;60.81;97364.34;5042650;28;19921;-67
2021/07/04 11:53:19;;;;;;;;;;;;;;;23.88;61.33;97367.28;5042605;28;19974;-66
2021/07/04 11:55:58;;;;;;;;;;;;;;;23.36;64.09;97372.69;5043657;28;20021;-67
2021/07/04 11:58:24;;;;;;;;;;;;;;;23.18;63.74;97376.28;5043662;28;19917;-66
2021/07/04 12:00:50;;;;;;;;;;;;;;;22.49;62.76;97380.56;5043563;28;20016;-62
2021/07/04 12:03:19;;;;;;;;;;;;;;;22.84;64.28;97374.34;5043881;28;20563;-63
2021/07/04 12:05:45;;;;;;;;;;;;;;;22.82;62.07;97373.66;5041682;28;19927;-62
2021/07/04 12:08:10;;;;;;;;;;;;;;;23.05;62.72;97370.56;5041166;28;19916;-62
2021/07/04 12:10:45;;;;;;;;;;;;;;;23.12;62.34;97376.88;5042598;28;19935;-62
2021/07/04 12:13:12;;;;;;;;;;;;;;;23.31;63.06;97375.84;5040226;28;19931;-62
2021/07/04 12:15:38;;;;;;;;;;;;;;;23.32;64.14;97379.31;5040971;28;19921;-63
2021/07/04 12:18:10;;;;;;;;;;;;;;;23.33;64.49;97384.50;5041133;28;19912;-62
2021/07/04 12:20:37;;;;;;;;;;;;;;;23.54;64.10;97377.94;5040284;28;20705;-64
2021/07/04 12:23:05;;;;;;;;;;;;;;;23.28;64.32;97378.81;5040745;28;19920;-63
2021/07/04 12:25:38;;;;;;;;;;;;;;;22.79;65.10;97374.00;5040718;28;19924;-65
2021/07/04 12:28:07;;;;;;;;;;;;;;;23.01;64.20;97374.47;5040987;28;20464;-63
2021/07/04 12:30:34;;;;;;;;;;;;;;;22.55;65.92;97373.78;5040012;28;19921;-64
2021/07/04 12:33:16;;;;;;;;;;;;;;;22.58;66.94;97378.81;5041282;28;19927;-65
2021/07/04 12:35:43;;;;;;;;;;;;;;;21.98;70.49;97372.25;5039419;28;19928;-65
2021/07/04 12:38:11;;;;;;;;;;;;;;;23.45;65.16;97369.06;5040629;28;19972;-65
2021/07/04 12:40:46;;;;;;;;;;;;;;;23.54;67.24;97362.78;5040650;28;19921;-65
2021/07/04 12:43:13;;;;;;;;;;;;;;;24.24;62.74;97340.34;5040727;28;19956;-64
2021/07/04 12:45:45;;;;;;;;;;;;;;;24.48;63.91;97339.53;5040320;28;20675;-65
2021/07/04 12:48:12;;;;;;;;;;;;;;;24.43;64.02;97333.88;5040201;28;20032;-65
2021/07/04 12:50:37;;;;;;;;;;;;;;;24.55;63.57;97331.72;5040226;28;19921;-65